createdAt,value
2023-02-26T00:01:51.972Z,55.10
2023-02-26T00:04:20.469Z,55.14
2023-02-26T00:06:58.781Z,55.19
2023-02-26T00:09:48.564Z,55.04
2023-02-26T00:12:17.585Z,55.06
2023-02-26T00:14:46.520Z,55.12
2023-02-26T00:17:31.091Z,54.98
2023-02-26T00:20:00.341Z,54.98
2023-02-26T00:22:28.916Z,55.06
2023-02-26T00:24:58.717Z,54.97
2023-02-26T00:27:27.103Z,54.94
2023-02-26T00:29:55.629Z,54.88
2023-02-26T00:32:24.841Z,55.11
2023-02-26T00:34:54.531Z,54.99
2023-02-26T00:37:45.180Z,55.01
2023-02-26T00:41:01.690Z,54.99
2023-02-26T00:43:30.509Z,55.10
2023-02-26T00:46:46.796Z,55.04
2023-02-26T00:49:32.143Z,54.87
2023-02-26T00:52:05.383Z,55.10
2023-02-26T00:54:33.931Z,55.00
2023-02-26T00:57:04.462Z,55.11
2023-02-26T00:59:32.883Z,55.05
2023-02-26T01:02:03.474Z,55.12
2023-02-26T01:04:33.042Z,55.08
2023-02-26T01:07:01.357Z,55.10
2023-02-26T01:09:36.018Z,55.10
2023-02-26T01:12:08.488Z,55.16
2023-02-26T01:14:37.545Z,55.10
2023-02-26T01:17:35.375Z,55.09
2023-02-26T01:20:19.715Z,54.96
2023-02-26T01:22:55.769Z,55.06
2023-02-26T01:25:29.442Z,55.03
2023-02-26T01:27:58.198Z,55.18
2023-02-26T01:30:27.124Z,55.00
2023-02-26T01:33:13.671Z,54.98
2023-02-26T01:35:49.095Z,55.06
2023-02-26T01:38:36.397Z,54.91
2023-02-26T01:41:30.170Z,55.08
2023-02-26T01:44:24.602Z,55.07
2023-02-26T01:47:17.725Z,54.96
2023-02-26T01:49:46.178Z,55.06
2023-02-26T01:52:35.628Z,55.03
2023-02-26T01:55:06.087Z,54.90
2023-02-26T01:57:35.846Z,55.05
2023-02-26T02:00:05.732Z,55.02
2023-02-26T02:02:40.615Z,54.93
2023-02-26T02:05:22.458Z,55.04
2023-02-26T02:07:50.941Z,55.03
2023-02-26T02:10:19.939Z,54.90
2023-02-26T02:13:16.162Z,55.05
2023-02-26T02:16:12.884Z,54.95
2023-02-26T02:19:10.854Z,55.04
2023-02-26T02:21:48.509Z,54.91
2023-02-26T02:24:56.083Z,55.04
2023-02-26T02:27:47.021Z,55.04
2023-02-26T02:30:53.182Z,55.02
2023-02-26T02:33:27.141Z,55.06
2023-02-26T02:36:01.746Z,55.08
2023-02-26T02:38:43.144Z,54.98
2023-02-26T02:41:20.867Z,54.88
2023-02-26T02:43:50.704Z,55.06
2023-02-26T02:46:25.266Z,54.88
2023-02-26T02:49:05.101Z,54.95
2023-02-26T02:51:48.078Z,54.94
2023-02-26T02:54:22.670Z,55.10
2023-02-26T02:56:59.068Z,54.91
2023-02-26T02:59:30.337Z,54.92
2023-02-26T03:02:19.554Z,54.92
2023-02-26T03:04:48.719Z,54.98
2023-02-26T03:07:17.341Z,54.96
2023-02-26T03:09:46.427Z,54.96
2023-02-26T03:12:15.841Z,54.99
2023-02-26T03:14:45.593Z,55.01
2023-02-26T03:17:34.183Z,54.98
2023-02-26T03:20:17.209Z,54.92
2023-02-26T03:23:19.564Z,55.08
2023-02-26T03:25:56.966Z,55.03
2023-02-26T03:28:31.010Z,54.93
2023-02-26T03:31:21.880Z,55.01
2023-02-26T03:34:16.051Z,54.98
2023-02-26T03:36:56.100Z,54.73
2023-02-26T03:39:31.892Z,54.95
2023-02-26T03:42:10.067Z,54.98
2023-02-26T03:44:57.602Z,54.91
2023-02-26T03:47:30.304Z,54.95
2023-02-26T03:50:05.010Z,54.79
2023-02-26T03:52:40.051Z,54.75
2023-02-26T03:55:28.735Z,54.94
2023-02-26T03:58:22.462Z,54.93
2023-02-26T04:01:25.196Z,54.93
2023-02-26T04:04:02.334Z,54.93
2023-02-26T04:06:31.472Z,54.91
2023-02-26T04:09:01.773Z,54.95
2023-02-26T04:11:31.866Z,54.88
2023-02-26T04:14:01.184Z,54.91
2023-02-26T04:16:31.359Z,54.91
2023-02-26T04:18:59.743Z,54.82
2023-02-26T04:21:28.650Z,54.86
2023-02-26T04:23:57.048Z,54.85
2023-02-26T04:26:25.689Z,54.96
2023-02-26T04:28:54.808Z,54.75
2023-02-26T04:31:23.338Z,54.80
2023-02-26T04:33:52.048Z,55.02
2023-02-26T04:36:20.492Z,54.91
2023-02-26T04:38:49.885Z,54.84
2023-02-26T04:41:18.612Z,54.90
2023-02-26T04:43:48.173Z,54.95
2023-02-26T04:46:23.108Z,54.85
2023-02-26T04:48:52.345Z,54.91
2023-02-26T04:51:22.311Z,54.91
2023-02-26T04:53:52.163Z,54.98
2023-02-26T04:56:21.151Z,54.83
2023-02-26T04:58:50.317Z,54.81
2023-02-26T05:01:24.343Z,55.02
2023-02-26T05:03:53.029Z,54.74
2023-02-26T05:06:22.794Z,54.77
2023-02-26T05:08:51.836Z,54.84
2023-02-26T05:11:20.486Z,54.97
2023-02-26T05:13:49.286Z,54.71
2023-02-26T05:16:19.103Z,54.66
2023-02-26T05:18:49.547Z,54.73
2023-02-26T05:21:19.463Z,54.86
2023-02-26T05:23:48.778Z,54.90
2023-02-26T05:26:18.800Z,54.78
2023-02-26T05:28:47.306Z,54.84
2023-02-26T05:31:16.724Z,54.76
2023-02-26T05:33:45.104Z,54.87
2023-02-26T05:36:14.556Z,54.88
2023-02-26T05:38:42.700Z,54.83
2023-02-26T05:41:11.247Z,54.72
2023-02-26T05:43:40.558Z,54.73
2023-02-26T05:46:09.181Z,54.77
2023-02-26T05:48:38.780Z,54.67
2023-02-26T05:51:07.118Z,54.66
2023-02-26T05:53:35.833Z,54.76
2023-02-26T05:56:05.931Z,54.82
2023-02-26T05:58:34.317Z,54.71
2023-02-26T06:01:02.870Z,54.91
2023-02-26T06:03:31.361Z,54.72
2023-02-26T06:06:00.992Z,54.86
2023-02-26T06:08:29.257Z,54.81
2023-02-26T06:10:57.496Z,54.85
2023-02-26T06:13:25.733Z,54.81
2023-02-26T06:15:54.160Z,54.75
2023-02-26T06:18:22.596Z,54.84
2023-02-26T06:20:50.910Z,54.77
2023-02-26T06:23:19.541Z,54.68
2023-02-26T06:25:47.813Z,54.67
2023-02-26T06:28:16.155Z,54.69
2023-02-26T06:30:44.691Z,54.80
2023-02-26T06:33:13.616Z,54.63
2023-02-26T06:35:42.814Z,54.68
2023-02-26T06:38:11.965Z,54.71
2023-02-26T06:40:40.487Z,54.88
2023-02-26T06:43:09.511Z,54.56
2023-02-26T06:45:37.916Z,54.70
2023-02-26T06:48:06.813Z,54.74
2023-02-26T06:50:35.753Z,54.68
2023-02-26T06:53:04.638Z,54.70
2023-02-26T06:55:33.090Z,54.72
2023-02-26T06:58:02.806Z,54.78
2023-02-26T07:00:30.994Z,54.89
2023-02-26T07:02:59.612Z,54.70
2023-02-26T07:05:28.635Z,54.72
2023-02-26T07:07:58.108Z,54.75
2023-02-26T07:10:27.307Z,54.75
2023-02-26T07:12:55.900Z,54.67
2023-02-26T07:15:24.182Z,54.70
2023-02-26T07:17:52.748Z,54.75
2023-02-26T07:20:21.127Z,54.56
2023-02-26T07:22:49.713Z,54.81
2023-02-26T07:25:17.982Z,54.73
2023-02-26T07:27:47.876Z,54.86
2023-02-26T07:30:16.600Z,54.86
2023-02-26T07:32:44.892Z,54.84
2023-02-26T07:35:13.778Z,54.79
2023-02-26T07:37:42.168Z,54.69
2023-02-26T07:40:11.524Z,54.70
2023-02-26T07:42:40.544Z,54.78
2023-02-26T07:45:09.205Z,54.82
2023-02-26T07:47:38.126Z,54.79
2023-02-26T07:50:07.566Z,54.77
2023-02-26T07:52:35.937Z,54.72
2023-02-26T07:55:05.421Z,54.91
2023-02-26T07:57:34.037Z,54.71
2023-02-26T08:00:02.772Z,54.68
2023-02-26T08:02:41.145Z,54.86
2023-02-26T08:05:09.980Z,54.81
2023-02-26T08:07:38.457Z,54.82
2023-02-26T08:10:07.156Z,55.01
2023-02-26T08:12:36.892Z,55.18
2023-02-26T08:15:06.320Z,55.38
2023-02-26T08:17:35.391Z,55.28
2023-02-26T08:20:05.301Z,55.36
2023-02-26T08:22:35.285Z,55.52
2023-02-26T08:25:04.887Z,55.55
2023-02-26T08:27:33.476Z,55.75
2023-02-26T08:42:04.034Z,55.89
2023-02-26T08:44:34.159Z,55.98
2023-02-26T08:47:04.349Z,55.82
2023-02-26T08:49:33.059Z,55.81
2023-02-26T08:52:01.105Z,55.95
2023-02-26T08:54:29.359Z,55.81
2023-02-26T08:56:58.505Z,55.88
2023-02-26T08:59:26.849Z,55.85
2023-02-26T09:01:55.603Z,56.00
2023-02-26T09:04:24.557Z,56.03
2023-02-26T09:06:53.730Z,56.11
2023-02-26T09:09:23.671Z,56.08
2023-02-26T09:11:51.951Z,56.08
2023-02-26T09:14:20.890Z,56.28
2023-02-26T09:16:51.613Z,56.18
2023-02-26T09:19:21.688Z,56.45
2023-02-26T09:21:50.332Z,56.46
2023-02-26T09:24:19.997Z,56.19
2023-02-26T09:26:49.423Z,56.28
2023-02-26T09:29:18.208Z,56.20
2023-02-26T09:31:47.259Z,56.29
2023-02-26T09:34:15.906Z,56.17
2023-02-26T09:36:46.693Z,56.19
2023-02-26T09:39:14.995Z,56.12
2023-02-26T09:41:50.799Z,56.12
2023-02-26T09:44:45.173Z,55.99
2023-02-26T09:47:23.979Z,56.05
2023-02-26T09:50:13.467Z,56.09
2023-02-26T09:53:23.247Z,56.03
2023-02-26T09:55:56.200Z,56.39
2023-02-26T09:58:40.109Z,57.13
2023-02-26T10:01:39.233Z,57.85
2023-02-26T10:04:29.207Z,58.22
2023-02-26T10:07:11.227Z,58.51
2023-02-26T10:09:58.879Z,58.74
2023-02-26T10:12:30.993Z,58.86
2023-02-26T10:15:27.849Z,58.91
2023-02-26T10:18:14.658Z,58.90
2023-02-26T10:21:13.516Z,58.84
2023-02-26T10:23:54.179Z,58.83
2023-02-26T10:26:41.508Z,58.77
2023-02-26T10:29:48.287Z,58.95
2023-02-26T10:32:37.390Z,59.00
2023-02-26T10:35:14.354Z,58.78
2023-02-26T10:37:55.695Z,58.65
2023-02-26T10:41:02.309Z,58.76
2023-02-26T10:43:54.014Z,58.63
2023-02-26T10:46:37.645Z,58.62
2023-02-26T10:49:21.445Z,58.65
2023-02-26T10:51:52.892Z,58.52
2023-02-26T10:54:36.110Z,58.63
2023-02-26T10:57:04.402Z,58.65
2023-02-26T10:59:33.139Z,58.56
2023-02-26T11:02:02.032Z,58.51
2023-02-26T11:04:30.480Z,58.47
2023-02-26T11:07:05.400Z,58.43
2023-02-26T11:09:46.079Z,58.49
2023-02-26T11:12:17.349Z,58.45
2023-02-26T11:14:48.761Z,58.47
2023-02-26T11:17:22.434Z,58.38
2023-02-26T11:19:57.020Z,58.58
2023-02-26T11:22:29.872Z,58.44
2023-02-26T11:24:59.267Z,58.46
2023-02-26T11:27:35.036Z,58.29
2023-02-26T11:30:20.501Z,58.48
2023-02-26T11:32:53.878Z,58.36
2023-02-26T11:35:29.778Z,58.49
2023-02-26T11:38:03.934Z,58.52
2023-02-26T11:40:41.120Z,58.38
2023-02-26T11:43:19.483Z,58.49
2023-02-26T11:45:55.263Z,58.50
2023-02-26T11:48:37.685Z,58.71
2023-02-26T11:51:09.723Z,58.86
2023-02-26T11:54:02.832Z,58.79
2023-02-26T11:56:41.918Z,58.80
2023-02-26T11:59:24.942Z,58.77
2023-02-26T12:01:54.506Z,58.69
2023-02-26T12:04:27.798Z,58.68
2023-02-26T12:06:56.894Z,58.66
2023-02-26T12:09:28.140Z,58.70
2023-02-26T12:11:59.844Z,58.72
2023-02-26T12:14:52.003Z,58.65
2023-02-26T12:17:30.413Z,58.46
2023-02-26T12:20:25.245Z,58.44
2023-02-26T12:22:57.034Z,58.44
2023-02-26T12:26:03.717Z,58.43
2023-02-26T12:28:57.076Z,58.42
2023-02-26T12:31:49.245Z,58.24
2023-02-26T12:35:09.497Z,58.17
2023-02-26T12:38:15.518Z,58.27
2023-02-26T12:40:51.272Z,58.30
2023-02-26T12:43:49.561Z,58.05
2023-02-26T12:46:38.063Z,58.02
2023-02-26T12:49:35.060Z,58.02
2023-02-26T12:52:29.785Z,58.11
2023-02-26T12:55:23.296Z,57.98
2023-02-26T12:58:13.421Z,58.02
2023-02-26T13:00:56.176Z,57.90
2023-02-26T13:03:24.841Z,57.81
2023-02-26T13:06:16.578Z,57.96
2023-02-26T13:09:31.300Z,57.90
2023-02-26T13:12:32.653Z,57.94
2023-02-26T13:15:46.774Z,57.91
2023-02-26T13:18:31.568Z,57.80
2023-02-26T13:21:13.875Z,58.02
2023-02-26T13:23:51.119Z,57.88
2023-02-26T13:26:21.468Z,57.78
2023-02-26T13:29:22.030Z,57.64
2023-02-26T13:31:57.640Z,57.72
2023-02-26T13:34:29.136Z,57.82
2023-02-26T13:36:58.411Z,57.81
2023-02-26T13:39:48.520Z,57.83
2023-02-26T13:42:32.162Z,57.89
2023-02-26T13:45:28.293Z,57.76
2023-02-26T13:48:28.181Z,57.75
2023-02-26T13:51:37.300Z,57.59
2023-02-26T13:54:15.672Z,57.51
2023-02-26T13:57:05.579Z,57.70
2023-02-26T13:59:47.783Z,57.58
2023-02-26T14:02:19.231Z,57.84
2023-02-26T14:04:58.377Z,57.84
2023-02-26T14:07:48.657Z,57.84
2023-02-26T14:10:26.085Z,57.93
2023-02-26T14:13:14.662Z,57.93
2023-02-26T14:16:01.188Z,58.02
2023-02-26T14:18:42.810Z,58.01
2023-02-26T14:21:32.875Z,58.10
2023-02-26T14:24:07.450Z,58.05
2023-02-26T14:26:37.566Z,58.08
2023-02-26T14:29:06.149Z,58.05
2023-02-26T14:31:55.846Z,58.22
2023-02-26T14:34:32.157Z,58.11
2023-02-26T14:37:07.181Z,58.06
2023-02-26T14:39:50.264Z,58.03
2023-02-26T14:42:32.477Z,58.30
2023-02-26T14:45:17.903Z,58.21
2023-02-26T14:47:48.840Z,58.14
2023-02-26T14:50:23.042Z,58.18
2023-02-26T14:53:24.324Z,58.12
2023-02-26T14:56:11.351Z,58.00
2023-02-26T14:59:01.657Z,58.15
2023-02-26T15:01:36.508Z,58.19
2023-02-26T15:04:28.945Z,58.29
2023-02-26T15:07:22.020Z,58.22
2023-02-26T15:10:14.953Z,58.30
2023-02-26T15:12:59.098Z,58.23
2023-02-26T15:15:49.415Z,58.21
2023-02-26T15:18:36.664Z,58.13
2023-02-26T15:21:22.004Z,58.26
2023-02-26T15:23:53.776Z,58.25
2023-02-26T15:26:29.650Z,58.11
2023-02-26T15:29:00.641Z,57.98
2023-02-26T15:31:35.128Z,58.25
2023-02-26T15:34:03.926Z,58.15
2023-02-26T15:36:33.134Z,58.14
2023-02-26T15:39:07.375Z,58.13
2023-02-26T15:41:36.781Z,58.00
2023-02-26T15:44:16.708Z,58.06
2023-02-26T15:47:06.085Z,58.08
2023-02-26T15:49:37.294Z,57.99
2023-02-26T15:52:09.018Z,57.95
2023-02-26T15:55:05.973Z,58.05
2023-02-26T15:57:34.177Z,58.00
2023-02-26T16:00:16.361Z,57.99
2023-02-26T16:02:45.838Z,58.05
2023-02-26T16:05:15.873Z,58.16
2023-02-26T16:08:02.243Z,57.95
2023-02-26T16:10:42.196Z,57.89
2023-02-26T16:13:17.884Z,58.04
2023-02-26T16:15:48.167Z,57.88
2023-02-26T16:18:23.865Z,58.16
2023-02-26T16:20:58.256Z,58.12
2023-02-26T16:23:51.876Z,58.26
2023-02-26T16:26:32.431Z,58.26
2023-02-26T16:29:06.536Z,58.23
2023-02-26T16:31:38.296Z,58.24
2023-02-26T16:34:39.969Z,58.23
2023-02-26T16:37:36.227Z,58.14
2023-02-26T16:40:12.411Z,58.41
2023-02-26T16:43:20.786Z,58.47
2023-02-26T16:45:56.063Z,58.56
2023-02-26T16:48:35.565Z,58.40
2023-02-26T16:51:15.973Z,58.36
2023-02-26T16:53:49.610Z,58.30
2023-02-26T16:56:22.711Z,58.53
2023-02-26T16:59:18.006Z,58.65
2023-02-26T17:02:13.207Z,58.62
2023-02-26T17:04:42.639Z,58.76
2023-02-26T17:07:28.208Z,58.66
2023-02-26T17:10:20.994Z,58.63
2023-02-26T17:13:01.985Z,58.58
2023-02-26T17:15:36.037Z,58.55
2023-02-26T17:18:04.639Z,58.75
2023-02-26T17:20:33.949Z,58.75
2023-02-26T17:23:05.345Z,58.77
2023-02-26T17:25:53.980Z,58.69
2023-02-26T17:28:26.083Z,58.79
2023-02-26T17:31:15.334Z,58.54
2023-02-26T17:33:46.103Z,58.87
2023-02-26T17:36:19.051Z,58.93
2023-02-26T17:38:51.291Z,58.90
2023-02-26T17:41:21.059Z,59.01
2023-02-26T17:43:49.624Z,58.89
2023-02-26T17:46:18.564Z,58.72
2023-02-26T17:48:46.793Z,58.74
2023-02-26T17:51:16.157Z,58.95
2023-02-26T17:53:46.939Z,59.00
2023-02-26T17:56:27.236Z,59.07
2023-02-26T17:58:59.081Z,58.83
2023-02-26T18:01:30.405Z,59.03
2023-02-26T18:04:01.157Z,58.96
2023-02-26T18:06:36.549Z,58.78
2023-02-26T18:09:06.632Z,58.93
2023-02-26T18:11:35.746Z,58.79
2023-02-26T18:14:15.588Z,58.82
2023-02-26T18:16:46.872Z,58.79
2023-02-26T18:19:15.605Z,58.58
2023-02-26T18:21:44.007Z,58.51
2023-02-26T18:24:13.162Z,58.67
2023-02-26T18:26:53.039Z,58.47
2023-02-26T18:29:21.717Z,58.44
2023-02-26T18:31:52.210Z,58.64
2023-02-26T18:34:21.198Z,58.46
2023-02-26T18:36:50.773Z,58.38
2023-02-26T18:39:20.434Z,58.52
2023-02-26T18:41:48.691Z,58.57
2023-02-26T18:44:17.208Z,58.48
2023-02-26T18:46:46.052Z,58.56
2023-02-26T18:49:20.416Z,58.44
2023-02-26T18:51:49.869Z,58.54
2023-02-26T18:54:18.532Z,58.40
2023-02-26T18:56:48.055Z,58.38
2023-02-26T18:59:16.649Z,58.43
2023-02-26T19:01:48.473Z,58.30
2023-02-26T19:04:16.726Z,58.27
2023-02-26T19:06:45.767Z,58.30
2023-02-26T19:09:14.124Z,58.13
2023-02-26T19:11:43.556Z,58.23
2023-02-26T19:14:13.707Z,58.42
2023-02-26T19:16:43.858Z,58.22
2023-02-26T19:19:13.369Z,58.33
2023-02-26T19:21:43.269Z,58.32
2023-02-26T19:24:13.546Z,58.45
2023-02-26T19:26:43.098Z,58.49
2023-02-26T19:29:30.928Z,58.50
2023-02-26T19:31:59.492Z,58.65
2023-02-26T19:34:29.769Z,58.62
2023-02-26T19:36:59.212Z,58.67
2023-02-26T19:39:29.764Z,58.64
2023-02-26T19:41:58.705Z,58.67
2023-02-26T19:44:27.913Z,58.78
2023-02-26T19:46:56.776Z,58.45
2023-02-26T19:49:26.415Z,58.74
2023-02-26T19:51:55.101Z,58.68
2023-02-26T19:54:23.205Z,58.79
2023-02-26T19:56:52.577Z,58.69
2023-02-26T19:59:22.490Z,58.79
2023-02-26T20:01:52.078Z,58.81
2023-02-26T20:04:21.464Z,58.78
2023-02-26T20:06:51.207Z,58.71
2023-02-26T20:09:20.358Z,58.75
2023-02-26T20:11:50.737Z,58.87
2023-02-26T20:14:20.044Z,58.87
2023-02-26T20:16:48.423Z,58.82
2023-02-26T20:19:17.244Z,58.90
2023-02-26T20:21:45.936Z,58.85
2023-02-26T20:24:16.065Z,58.94
2023-02-26T20:26:45.698Z,58.98
2023-02-26T20:29:26.571Z,58.85
2023-02-26T20:31:55.237Z,58.68
2023-02-26T20:34:26.618Z,58.80
2023-02-26T20:36:55.820Z,58.79
2023-02-26T20:39:24.726Z,58.77
2023-02-26T20:41:52.917Z,58.93
2023-02-26T20:44:21.312Z,58.67
2023-02-26T20:46:49.636Z,58.89
2023-02-26T20:49:29.868Z,58.69
2023-02-26T20:51:59.481Z,58.73
2023-02-26T20:54:27.745Z,58.75
2023-02-26T20:56:56.952Z,58.83
2023-02-26T20:59:25.405Z,58.91
2023-02-26T21:01:55.491Z,58.97
2023-02-26T21:04:24.594Z,59.13
2023-02-26T21:06:53.044Z,59.38
2023-02-26T21:09:21.969Z,59.20
2023-02-26T21:11:52.545Z,59.11
2023-02-26T21:14:20.981Z,59.39
2023-02-26T21:16:50.188Z,59.44
2023-02-26T21:19:20.344Z,59.41
2023-02-26T21:21:48.802Z,59.56
2023-02-26T21:24:17.377Z,59.54
2023-02-26T21:26:46.910Z,59.55
2023-02-26T21:29:15.257Z,59.48
2023-02-26T21:31:44.812Z,59.69
2023-02-26T21:34:32.795Z,59.75
2023-02-26T21:37:03.425Z,59.75
2023-02-26T21:39:32.984Z,59.75
2023-02-26T21:42:03.938Z,59.94
2023-02-26T21:44:34.955Z,59.87
2023-02-26T21:47:04.171Z,59.69
2023-02-26T21:49:33.950Z,59.94
2023-02-26T21:52:05.766Z,59.75
2023-02-26T21:54:35.486Z,59.83
2023-02-26T21:57:05.014Z,59.98
2023-02-26T21:59:33.914Z,59.87
2023-02-26T22:02:03.183Z,59.91
2023-02-26T22:04:33.953Z,59.92
2023-02-26T22:07:03.827Z,59.83
2023-02-26T22:09:32.548Z,59.83
2023-02-26T22:12:00.916Z,59.75
2023-02-26T22:14:30.342Z,59.88
2023-02-26T22:16:58.719Z,59.70
2023-02-26T22:19:27.640Z,59.67
2023-02-26T22:21:56.851Z,59.60
2023-02-26T22:24:25.105Z,59.57
2023-02-26T22:26:55.072Z,59.63
2023-02-26T22:29:23.322Z,59.41
2023-02-26T22:31:52.068Z,59.57
2023-02-26T22:34:20.831Z,59.64
2023-02-26T22:36:49.524Z,59.51
2023-02-26T22:39:19.419Z,59.37
2023-02-26T22:41:48.284Z,59.38
2023-02-26T22:44:17.221Z,59.22
2023-02-26T22:46:47.543Z,59.41
2023-02-26T22:49:15.843Z,59.18
2023-02-26T22:51:45.122Z,59.41
2023-02-26T22:54:14.066Z,59.26
2023-02-26T22:56:43.924Z,59.11
2023-02-26T22:59:13.285Z,59.15
2023-02-26T23:01:41.828Z,59.34
2023-02-26T23:04:10.814Z,59.30
2023-02-26T23:06:39.605Z,59.03
2023-02-26T23:09:07.903Z,59.28
2023-02-26T23:11:36.631Z,59.15
2023-02-26T23:14:04.914Z,59.19
2023-02-26T23:16:33.247Z,59.17
2023-02-26T23:19:02.907Z,59.00
2023-02-26T23:21:32.055Z,59.15
2023-02-26T23:24:01.141Z,58.99
2023-02-26T23:26:29.549Z,59.03
2023-02-26T23:28:58.209Z,58.98
2023-02-26T23:31:26.949Z,59.00
2023-02-26T23:33:56.102Z,58.98
2023-02-26T23:36:24.537Z,59.06
2023-02-26T23:38:52.809Z,58.97
2023-02-26T23:41:21.728Z,58.91
2023-02-26T23:43:50.027Z,58.85
2023-02-26T23:46:18.416Z,58.88
2023-02-26T23:48:46.640Z,58.76
2023-02-26T23:51:15.548Z,59.01
2023-02-26T23:53:44.038Z,58.90
2023-02-26T23:56:13.039Z,58.73
2023-02-26T23:58:41.414Z,58.88
